createdAt,value
2023-08-17T00:00:21.150Z,8.80
2023-08-17T00:02:48.785Z,10.50
2023-08-17T00:05:16.482Z,8.40
2023-08-17T00:07:44.122Z,6.30
2023-08-17T00:10:11.802Z,7.50
2023-08-17T00:12:39.413Z,9.70
2023-08-17T00:15:08.200Z,8.50
2023-08-17T00:17:35.849Z,8.80
2023-08-17T00:20:06.387Z,7.30
2023-08-17T00:22:34.198Z,7.40
2023-08-17T00:25:01.915Z,9.60
2023-08-17T00:27:30.143Z,7.90
2023-08-17T00:29:58.217Z,6.90
2023-08-17T00:32:27.320Z,7.30
2023-08-17T00:34:54.980Z,8.40
2023-08-17T00:37:22.744Z,6.50
2023-08-17T00:39:50.406Z,8.40
2023-08-17T00:42:18.284Z,7.70
2023-08-17T00:44:45.947Z,8.40
2023-08-17T00:47:13.702Z,7.50
2023-08-17T00:49:42.190Z,7.00
2023-08-17T00:52:10.012Z,7.30
2023-08-17T00:54:37.575Z,9.80
2023-08-17T00:57:07.864Z,6.40
2023-08-17T00:59:37.237Z,7.60
2023-08-17T01:02:05.133Z,7.40
2023-08-17T01:04:33.148Z,7.30
2023-08-17T01:07:02.975Z,6.60
2023-08-17T01:09:30.680Z,7.40
2023-08-17T01:12:17.120Z,6.30
2023-08-17T01:14:54.375Z,8.70
2023-08-17T01:17:31.705Z,8.00
2023-08-17T01:19:59.569Z,6.90
2023-08-17T01:22:27.195Z,6.90
2023-08-17T01:25:00.799Z,7.30
2023-08-17T01:27:40.153Z,7.40
2023-08-17T01:30:08.975Z,7.20
2023-08-17T01:32:56.067Z,7.20
2023-08-17T01:35:40.302Z,7.70
2023-08-17T01:38:11.136Z,7.00
2023-08-17T01:40:38.802Z,7.80
2023-08-17T01:43:06.464Z,7.70
2023-08-17T01:45:34.040Z,7.30
2023-08-17T01:48:02.835Z,7.10
2023-08-17T01:50:32.026Z,9.80
2023-08-17T01:52:59.782Z,9.70
2023-08-17T01:55:28.471Z,9.30
2023-08-17T01:57:56.140Z,9.00
2023-08-17T02:00:23.828Z,10.10
2023-08-17T02:02:51.486Z,9.60
2023-08-17T02:05:19.124Z,8.50
2023-08-17T02:07:47.303Z,10.00
2023-08-17T02:10:15.689Z,7.70
2023-08-17T02:12:43.354Z,7.60
2023-08-17T02:15:11.322Z,7.50
2023-08-17T02:17:38.920Z,8.20
2023-08-17T02:20:07.688Z,7.90
2023-08-17T02:22:35.967Z,9.40
2023-08-17T02:25:03.598Z,8.80
2023-08-17T02:27:32.920Z,8.20
2023-08-17T02:30:00.689Z,7.70
2023-08-17T02:32:28.803Z,10.40
2023-08-17T02:34:56.934Z,8.10
2023-08-17T02:37:24.832Z,10.30
2023-08-17T02:39:52.819Z,8.50
2023-08-17T02:42:20.644Z,8.20
2023-08-17T02:44:48.803Z,10.50
2023-08-17T02:47:16.482Z,8.20
2023-08-17T02:49:44.250Z,8.10
2023-08-17T02:52:12.193Z,8.20
2023-08-17T02:54:39.781Z,8.60
2023-08-17T02:57:07.398Z,8.40
2023-08-17T02:59:34.963Z,9.30
2023-08-17T03:02:02.672Z,8.60
2023-08-17T03:04:30.268Z,8.60
2023-08-17T03:06:57.814Z,7.90
2023-08-17T03:09:25.463Z,9.20
2023-08-17T03:11:53.480Z,8.10
2023-08-17T03:14:21.726Z,8.40
2023-08-17T03:16:49.317Z,8.20
2023-08-17T03:19:17.036Z,8.70
2023-08-17T03:21:45.226Z,7.70
2023-08-17T03:24:12.882Z,8.30
2023-08-17T03:26:40.646Z,7.60
2023-08-17T03:29:11.217Z,7.80
2023-08-17T03:31:39.385Z,7.40
2023-08-17T03:34:08.572Z,9.00
2023-08-17T03:36:36.345Z,9.30
2023-08-17T03:39:04.341Z,7.30
2023-08-17T03:41:32.671Z,10.70
2023-08-17T03:44:00.233Z,9.00
2023-08-17T03:46:27.817Z,7.70
2023-08-17T03:48:55.463Z,7.30
2023-08-17T03:51:23.137Z,8.50
2023-08-17T03:53:50.888Z,8.00
2023-08-17T03:56:19.077Z,7.40
2023-08-17T03:58:46.744Z,8.60
2023-08-17T04:01:15.364Z,8.80
2023-08-17T04:03:43.295Z,9.50
2023-08-17T04:06:11.845Z,10.40
2023-08-17T04:08:39.658Z,9.60
2023-08-17T04:11:07.213Z,9.40
2023-08-17T04:13:34.870Z,8.50
2023-08-17T04:16:02.435Z,9.10
2023-08-17T04:18:30.109Z,8.30
2023-08-17T04:20:57.765Z,8.70
2023-08-17T04:23:26.449Z,7.60
2023-08-17T04:25:55.069Z,8.00
2023-08-17T04:28:23.159Z,9.60
2023-08-17T04:30:52.717Z,7.30
2023-08-17T04:33:20.484Z,7.70
2023-08-17T04:35:49.302Z,7.10
2023-08-17T04:38:17.042Z,9.30
2023-08-17T04:40:44.961Z,6.80
2023-08-17T04:43:12.684Z,6.60
2023-08-17T04:45:40.455Z,7.30
2023-08-17T04:48:08.610Z,7.70
2023-08-17T04:50:36.802Z,8.10
2023-08-17T04:53:05.265Z,7.80
2023-08-17T04:55:35.809Z,8.00
2023-08-17T04:58:03.575Z,7.60
2023-08-17T05:00:32.076Z,7.40
2023-08-17T05:03:00.090Z,8.10
2023-08-17T05:05:32.638Z,8.20
2023-08-17T05:08:00.751Z,10.90
2023-08-17T05:10:28.552Z,7.50
2023-08-17T05:12:56.778Z,7.70
2023-08-17T05:15:24.543Z,7.10
2023-08-17T05:17:52.289Z,8.00
2023-08-17T05:20:21.881Z,8.80
2023-08-17T05:22:49.953Z,8.00
2023-08-17T05:25:18.998Z,7.30
2023-08-17T05:27:46.815Z,8.40
2023-08-17T05:30:14.695Z,6.10
2023-08-17T05:32:46.659Z,7.50
2023-08-17T05:35:14.310Z,6.20
2023-08-17T05:37:42.267Z,6.50
2023-08-17T05:40:10.228Z,5.80
2023-08-17T05:42:38.124Z,6.20
2023-08-17T05:45:06.743Z,6.60
2023-08-17T05:47:34.498Z,8.00
2023-08-17T05:50:02.781Z,7.30
2023-08-17T05:52:30.414Z,6.40
2023-08-17T05:54:58.083Z,5.90
2023-08-17T05:57:26.164Z,6.50
2023-08-17T05:59:54.436Z,6.80
2023-08-17T06:02:22.061Z,5.80
2023-08-17T06:04:51.077Z,4.90
2023-08-17T06:07:18.761Z,5.80
2023-08-17T06:09:46.424Z,6.50
2023-08-17T06:12:14.083Z,5.50
2023-08-17T06:14:43.386Z,5.70
2023-08-17T06:17:11.153Z,5.40
2023-08-17T06:19:40.888Z,5.30
2023-08-17T06:22:08.631Z,6.40
2023-08-17T06:24:36.236Z,4.80
2023-08-17T06:27:03.975Z,6.60
2023-08-17T06:29:31.733Z,4.80
2023-08-17T06:31:59.391Z,5.00
2023-08-17T06:34:27.068Z,4.90
2023-08-17T06:37:02.718Z,5.00
2023-08-17T06:39:30.887Z,4.10
2023-08-17T06:41:58.500Z,4.40
2023-08-17T06:44:26.111Z,3.50
2023-08-17T06:46:53.716Z,5.40
2023-08-17T06:49:21.336Z,4.40
2023-08-17T06:51:49.269Z,5.10
2023-08-17T06:54:16.792Z,4.90
2023-08-17T06:56:44.432Z,4.90
2023-08-17T06:59:11.974Z,3.80
2023-08-17T07:01:39.740Z,6.40
2023-08-17T07:04:08.762Z,4.20
2023-08-17T07:06:36.255Z,4.10
2023-08-17T07:09:06.360Z,5.90
2023-08-17T07:11:34.172Z,4.30
2023-08-17T07:14:01.809Z,4.40
2023-08-17T07:16:29.445Z,4.30
2023-08-17T07:18:57.101Z,4.40
2023-08-17T07:21:24.764Z,4.60
2023-08-17T07:23:52.415Z,4.50
2023-08-17T07:26:20.316Z,4.40
2023-08-17T07:28:48.469Z,5.30
2023-08-17T07:31:17.550Z,4.70
2023-08-17T07:33:45.130Z,4.10
2023-08-17T07:36:12.757Z,5.20
2023-08-17T07:38:40.461Z,5.90
2023-08-17T07:41:08.125Z,3.40
2023-08-17T07:43:35.658Z,5.10
2023-08-17T07:46:03.343Z,3.80
2023-08-17T07:48:35.022Z,3.40
2023-08-17T07:51:03.251Z,4.20
2023-08-17T07:53:31.178Z,3.80
2023-08-17T07:55:58.828Z,4.00
2023-08-17T07:58:26.463Z,4.70
2023-08-17T08:00:54.098Z,4.40
2023-08-17T08:03:22.024Z,8.10
2023-08-17T08:05:49.624Z,2.30
2023-08-17T08:08:18.792Z,3.80
2023-08-17T08:10:46.367Z,3.70
2023-08-17T08:13:15.385Z,7.10
2023-08-17T08:15:43.128Z,4.30
2023-08-17T08:18:10.918Z,4.20
2023-08-17T08:20:39.352Z,3.30
2023-08-17T08:23:06.957Z,3.20
2023-08-17T08:25:34.506Z,2.10
2023-08-17T08:28:02.150Z,2.80
2023-08-17T08:30:29.877Z,4.70
2023-08-17T08:32:59.377Z,2.80
2023-08-17T08:35:27.010Z,4.90
2023-08-17T08:37:56.786Z,3.10
2023-08-17T08:40:31.279Z,3.00
2023-08-17T08:42:59.176Z,5.20
2023-08-17T08:45:26.996Z,3.50
2023-08-17T08:47:54.906Z,2.50
2023-08-17T08:50:25.716Z,3.80
2023-08-17T08:53:00.083Z,6.80
2023-08-17T08:55:31.716Z,2.90
2023-08-17T08:57:59.625Z,2.50
2023-08-17T09:00:27.795Z,2.70
2023-08-17T09:02:55.860Z,3.40
2023-08-17T09:05:23.642Z,3.10
2023-08-17T09:07:54.045Z,4.20
2023-08-17T09:10:21.931Z,2.90
2023-08-17T09:12:50.372Z,3.20
2023-08-17T09:15:18.358Z,3.50
2023-08-17T09:17:46.574Z,2.50
2023-08-17T09:20:39.062Z,4.90
2023-08-17T09:23:12.164Z,3.10
2023-08-17T09:25:41.538Z,2.60
2023-08-17T09:28:13.301Z,3.70
2023-08-17T09:30:57.047Z,5.30
2023-08-17T09:33:29.706Z,2.60
2023-08-17T09:35:59.927Z,8.20
2023-08-17T09:38:29.175Z,2.80
2023-08-17T09:40:58.154Z,3.00
2023-08-17T09:43:27.137Z,4.00
2023-08-17T09:45:54.767Z,3.30
2023-08-17T09:48:22.535Z,4.80
2023-08-17T09:50:50.144Z,3.50
2023-08-17T09:53:18.796Z,3.30
2023-08-17T09:55:46.751Z,3.80
2023-08-17T09:58:17.181Z,3.10
2023-08-17T10:00:52.748Z,3.40
2023-08-17T10:03:20.886Z,3.80
2023-08-17T10:05:57.479Z,3.40
2023-08-17T10:08:25.127Z,4.60
2023-08-17T10:10:56.420Z,4.70
2023-08-17T10:13:57.234Z,3.50
2023-08-17T10:16:31.430Z,3.90
2023-08-17T10:19:11.628Z,3.00
2023-08-17T10:21:45.215Z,4.20
2023-08-17T10:24:12.733Z,4.80
2023-08-17T10:26:43.039Z,3.20
2023-08-17T10:29:15.395Z,2.70
2023-08-17T10:31:46.834Z,3.10
2023-08-17T10:34:14.898Z,3.20
2023-08-17T10:36:42.459Z,3.30
2023-08-17T10:41:49.183Z,4.00
2023-08-17T10:44:19.577Z,3.30
2023-08-17T10:46:48.142Z,3.00
2023-08-17T10:49:28.077Z,2.60
2023-08-17T10:52:05.724Z,3.50
2023-08-17T10:54:44.699Z,3.40
2023-08-17T10:57:31.523Z,4.20
2023-08-17T11:00:21.723Z,3.10
2023-08-17T11:03:01.432Z,5.00
2023-08-17T11:05:41.183Z,5.00
2023-08-17T11:08:15.678Z,3.90
2023-08-17T11:10:48.266Z,5.90
2023-08-17T11:13:16.254Z,6.80
2023-08-17T11:15:44.993Z,4.10
2023-08-17T11:18:13.116Z,3.10
2023-08-17T11:20:42.121Z,3.90
2023-08-17T11:23:13.329Z,4.30
2023-08-17T11:28:12.468Z,4.70
2023-08-17T11:30:40.437Z,3.20
2023-08-17T11:33:08.659Z,2.80
2023-08-17T11:35:37.419Z,3.20
2023-08-17T11:38:09.103Z,3.00
2023-08-17T11:40:37.051Z,4.20
2023-08-17T11:43:04.976Z,3.00
2023-08-17T11:45:33.231Z,5.00
2023-08-17T11:48:00.885Z,4.60
2023-08-17T11:50:29.871Z,6.30
2023-08-17T11:53:01.215Z,3.10
2023-08-17T11:55:29.000Z,2.80
2023-08-17T11:57:56.599Z,3.50
2023-08-17T12:00:26.095Z,3.00
2023-08-17T12:02:54.641Z,3.10
2023-08-17T12:05:26.261Z,3.30
2023-08-17T12:07:54.757Z,2.90
2023-08-17T12:10:23.849Z,2.60
2023-08-17T12:12:51.699Z,3.20
2023-08-17T12:15:19.405Z,4.00
2023-08-17T12:17:47.822Z,3.10
2023-08-17T12:20:19.290Z,2.90
2023-08-17T12:22:47.920Z,3.10
2023-08-17T12:25:15.898Z,3.40
2023-08-17T12:27:43.558Z,3.70
2023-08-17T12:30:28.135Z,3.70
2023-08-17T12:32:56.866Z,3.10
2023-08-17T12:35:27.161Z,3.80
2023-08-17T12:37:55.332Z,3.30
2023-08-17T12:40:23.514Z,3.40
2023-08-17T12:42:51.177Z,4.30
2023-08-17T12:45:18.873Z,3.40
2023-08-17T12:47:46.463Z,2.60
2023-08-17T12:50:14.165Z,2.90
2023-08-17T12:52:47.236Z,3.20
2023-08-17T12:55:15.380Z,3.80
2023-08-17T12:57:43.014Z,4.80
2023-08-17T13:00:13.695Z,4.10
2023-08-17T13:02:41.426Z,3.90
2023-08-17T13:05:09.372Z,3.20
2023-08-17T13:07:38.613Z,3.70
2023-08-17T13:10:06.834Z,3.00
2023-08-17T13:12:34.393Z,3.30
2023-08-17T13:15:01.995Z,2.70
2023-08-17T13:17:29.542Z,3.50
2023-08-17T13:19:57.164Z,2.80
2023-08-17T13:22:24.896Z,3.10
2023-08-17T13:24:52.757Z,2.80
2023-08-17T13:27:20.325Z,4.20
2023-08-17T13:29:47.944Z,2.80
2023-08-17T13:32:16.054Z,5.30
2023-08-17T13:34:43.671Z,2.20
2023-08-17T13:37:11.258Z,4.50
2023-08-17T13:39:38.787Z,3.00
2023-08-17T13:42:06.747Z,5.20
2023-08-17T13:44:34.349Z,3.80
2023-08-17T13:47:01.889Z,2.20
2023-08-17T13:49:29.448Z,2.30
2023-08-17T13:51:59.818Z,2.60
2023-08-17T13:54:27.404Z,4.10
2023-08-17T13:56:54.992Z,4.10
2023-08-17T13:59:22.504Z,3.40
2023-08-17T14:01:50.204Z,2.40
2023-08-17T14:04:21.896Z,3.10
2023-08-17T14:06:49.557Z,2.60
2023-08-17T14:09:17.071Z,3.30
2023-08-17T14:11:44.675Z,2.90
2023-08-17T14:14:12.221Z,3.10
2023-08-17T14:16:40.405Z,3.80
2023-08-17T14:19:08.063Z,2.80
2023-08-17T14:21:35.653Z,2.20
2023-08-17T14:24:03.536Z,2.90
2023-08-17T14:26:33.017Z,2.70
2023-08-17T14:29:00.902Z,3.50
2023-08-17T14:31:28.507Z,2.90
2023-08-17T14:33:56.196Z,5.20
2023-08-17T14:36:23.716Z,4.10
2023-08-17T14:38:51.201Z,5.00
2023-08-17T14:41:18.760Z,3.00
2023-08-17T14:43:47.359Z,2.40
2023-08-17T14:46:15.880Z,3.80
2023-08-17T14:48:43.903Z,3.30
2023-08-17T14:51:11.400Z,3.50
2023-08-17T14:53:39.702Z,2.90
2023-08-17T14:56:07.896Z,3.30
2023-08-17T14:58:35.558Z,2.60
2023-08-17T15:01:04.486Z,2.50
2023-08-17T15:03:32.154Z,3.90
2023-08-17T15:05:59.878Z,2.60
2023-08-17T15:08:27.454Z,2.30
2023-08-17T15:10:55.196Z,3.40
2023-08-17T15:13:24.022Z,3.00
2023-08-17T15:15:51.638Z,3.30
2023-08-17T15:18:19.274Z,4.40
2023-08-17T15:20:46.888Z,2.60
2023-08-17T15:23:18.677Z,4.50
2023-08-17T15:25:46.724Z,2.70
2023-08-17T15:28:14.590Z,1.60
2023-08-17T15:30:42.152Z,2.80
2023-08-17T15:33:09.779Z,2.80
2023-08-17T15:35:40.580Z,3.10
2023-08-17T15:38:08.589Z,3.20
2023-08-17T15:40:36.826Z,2.70
2023-08-17T15:43:05.145Z,3.50
2023-08-17T15:45:33.058Z,3.10
2023-08-17T15:48:00.713Z,2.80
2023-08-17T15:50:30.167Z,3.10
2023-08-17T15:52:57.748Z,2.70
2023-08-17T15:55:26.507Z,3.50
2023-08-17T15:57:54.061Z,3.40
2023-08-17T16:00:21.669Z,3.00
2023-08-17T16:02:49.252Z,2.00
2023-08-17T16:05:17.987Z,3.50
2023-08-17T16:07:45.946Z,3.30
2023-08-17T16:10:13.569Z,2.10
2023-08-17T16:12:42.997Z,4.60
2023-08-17T16:15:11.562Z,4.30
2023-08-17T16:17:39.242Z,4.20
2023-08-17T16:20:08.935Z,5.20
2023-08-17T16:22:36.632Z,4.90
2023-08-17T16:25:05.070Z,5.40
2023-08-17T16:27:32.793Z,5.90
2023-08-17T16:30:00.380Z,7.30
2023-08-17T16:32:30.313Z,9.70
2023-08-17T16:34:59.064Z,6.30
2023-08-17T16:37:26.707Z,8.00
2023-08-17T16:39:54.452Z,4.90
2023-08-17T16:42:29.017Z,5.80
2023-08-17T16:44:59.125Z,4.80
2023-08-17T16:47:28.324Z,3.70
2023-08-17T16:50:00.471Z,4.90
2023-08-17T16:52:28.559Z,3.70
2023-08-17T16:54:56.147Z,3.20
2023-08-17T16:57:25.232Z,3.00
2023-08-17T16:59:52.868Z,4.40
2023-08-17T17:02:20.461Z,3.50
2023-08-17T17:04:48.034Z,3.60
2023-08-17T17:07:16.489Z,3.30
2023-08-17T17:09:45.723Z,3.40
2023-08-17T17:12:13.379Z,4.50
2023-08-17T17:14:41.066Z,4.40
2023-08-17T17:17:11.244Z,5.00
2023-08-17T17:19:38.791Z,5.50
2023-08-17T17:22:06.550Z,8.00
2023-08-17T17:24:34.432Z,8.30
2023-08-17T17:27:02.086Z,6.30
2023-08-17T17:29:29.881Z,6.50
2023-08-17T17:31:57.510Z,6.00
2023-08-17T17:34:25.895Z,5.10
2023-08-17T17:36:53.428Z,6.20
2023-08-17T17:39:21.423Z,5.50
2023-08-17T17:41:49.817Z,7.00
2023-08-17T17:44:17.364Z,5.60
2023-08-17T17:46:45.224Z,6.00
2023-08-17T17:49:13.960Z,6.80
2023-08-17T17:51:42.881Z,4.50
2023-08-17T17:54:10.480Z,5.90
2023-08-17T17:56:43.743Z,5.40
2023-08-17T17:59:14.117Z,34.40
2023-08-17T18:01:41.866Z,57.30
2023-08-17T18:04:10.886Z,75.50
2023-08-17T18:06:38.842Z,57.00
2023-08-17T18:09:06.682Z,61.30
2023-08-17T18:11:34.306Z,54.30
2023-08-17T18:14:02.057Z,47.70
2023-08-17T18:16:31.461Z,35.70
2023-08-17T18:19:00.069Z,27.00
2023-08-17T18:21:31.516Z,23.20
2023-08-17T18:26:28.285Z,18.60
2023-08-17T18:28:56.821Z,15.60
2023-08-17T18:31:24.664Z,14.90
2023-08-17T18:33:52.389Z,14.40
2023-08-17T18:36:20.074Z,14.60
2023-08-17T18:38:47.788Z,11.20
2023-08-17T18:41:15.454Z,10.00
2023-08-17T18:43:43.084Z,8.30
2023-08-17T18:46:11.298Z,8.00
2023-08-17T18:48:39.588Z,8.80
2023-08-17T18:51:07.288Z,7.80
2023-08-17T18:53:34.905Z,6.00
2023-08-17T18:56:02.793Z,5.90
2023-08-17T18:58:30.452Z,5.20
2023-08-17T19:00:58.100Z,4.70
2023-08-17T19:03:27.788Z,5.40
2023-08-17T19:05:55.624Z,7.00
2023-08-17T19:08:24.780Z,7.30
2023-08-17T19:10:53.951Z,6.00
2023-08-17T19:13:23.687Z,6.60
2023-08-17T19:15:51.313Z,6.30
2023-08-17T19:18:19.026Z,6.10
2023-08-17T19:20:46.598Z,7.20
2023-08-17T19:23:14.173Z,7.40
2023-08-17T19:25:42.134Z,6.60
2023-08-17T19:28:09.736Z,6.90
2023-08-17T19:30:38.603Z,6.60
2023-08-17T19:33:06.601Z,7.70
2023-08-17T19:35:34.307Z,6.30
2023-08-17T19:38:02.019Z,7.80
2023-08-17T19:40:31.569Z,7.40
2023-08-17T19:43:00.271Z,8.50
2023-08-17T19:45:28.317Z,7.80
2023-08-17T19:47:57.517Z,7.70
2023-08-17T19:50:25.524Z,9.20
2023-08-17T19:52:54.703Z,7.20
2023-08-17T19:55:23.526Z,8.10
2023-08-17T19:57:51.061Z,6.20
2023-08-17T20:00:20.179Z,7.70
2023-08-17T20:02:49.761Z,6.10
2023-08-17T20:05:19.217Z,6.10
2023-08-17T20:07:46.846Z,7.00
2023-08-17T20:10:15.975Z,7.30
2023-08-17T20:12:43.551Z,7.50
2023-08-17T20:15:11.492Z,10.30
2023-08-17T20:17:39.242Z,8.20
2023-08-17T20:20:11.218Z,7.30
2023-08-17T20:22:39.080Z,6.50
2023-08-17T20:25:07.378Z,7.90
2023-08-17T20:27:34.968Z,7.80
2023-08-17T20:30:03.634Z,7.70
2023-08-17T20:32:31.633Z,6.20
2023-08-17T20:34:59.258Z,7.80
2023-08-17T20:37:27.094Z,6.90
2023-08-17T20:39:54.945Z,6.50
2023-08-17T20:42:22.492Z,5.70
2023-08-17T20:44:50.004Z,7.30
2023-08-17T20:47:17.651Z,6.10
2023-08-17T20:49:45.146Z,6.80
2023-08-17T20:52:12.697Z,9.60
2023-08-17T20:54:40.302Z,8.00
2023-08-17T20:57:08.769Z,8.00
2023-08-17T20:59:37.248Z,5.70
2023-08-17T21:02:05.059Z,7.60
2023-08-17T21:04:33.032Z,7.10
2023-08-17T21:07:00.699Z,8.60
2023-08-17T21:09:29.081Z,6.50
2023-08-17T21:11:59.379Z,7.20
2023-08-17T21:14:27.603Z,5.00
2023-08-17T21:16:55.290Z,8.30
2023-08-17T21:19:22.980Z,6.70
2023-08-17T21:21:50.600Z,6.90
2023-08-17T21:24:18.136Z,7.90
2023-08-17T21:26:45.734Z,7.20
2023-08-17T21:29:13.322Z,5.40
2023-08-17T21:31:41.762Z,8.90
2023-08-17T21:34:09.317Z,8.50
2023-08-17T21:36:36.923Z,8.00
2023-08-17T21:39:04.772Z,7.40
2023-08-17T21:41:32.444Z,8.30
2023-08-17T21:44:00.013Z,8.60
2023-08-17T21:46:27.784Z,6.50
2023-08-17T21:48:55.299Z,4.70
2023-08-17T21:51:22.790Z,5.00
2023-08-17T21:53:50.418Z,7.40
2023-08-17T21:56:17.918Z,6.40
2023-08-17T21:58:47.616Z,6.60
2023-08-17T22:01:15.323Z,7.00
2023-08-17T22:03:42.956Z,8.40
2023-08-17T22:06:11.542Z,8.20
2023-08-17T22:08:39.108Z,6.70
2023-08-17T22:11:06.677Z,7.70
2023-08-17T22:13:34.243Z,7.40
2023-08-17T22:16:01.939Z,6.10
2023-08-17T22:18:29.530Z,6.30
2023-08-17T22:20:57.053Z,6.00
2023-08-17T22:23:24.720Z,7.00
2023-08-17T22:25:52.483Z,6.70
2023-08-17T22:28:20.101Z,6.80
2023-08-17T22:30:47.736Z,5.40
2023-08-17T22:33:15.360Z,9.10
2023-08-17T22:35:43.862Z,6.70
2023-08-17T22:38:11.489Z,5.50
2023-08-17T22:40:39.050Z,6.10
2023-08-17T22:43:07.552Z,9.00
2023-08-17T22:45:38.491Z,6.20
2023-08-17T22:48:06.352Z,5.10
2023-08-17T22:50:34.244Z,8.90
2023-08-17T22:53:02.261Z,6.20
2023-08-17T22:55:29.856Z,8.30
2023-08-17T22:57:57.401Z,8.50
2023-08-17T23:00:25.393Z,6.70
2023-08-17T23:02:52.924Z,6.70
2023-08-17T23:05:20.517Z,10.20
2023-08-17T23:07:48.131Z,8.60
2023-08-17T23:10:15.700Z,6.50
2023-08-17T23:12:43.364Z,8.80
2023-08-17T23:30:46.695Z,7.60
2023-08-17T23:33:13.812Z,5.40
2023-08-17T23:35:40.673Z,6.40
2023-08-17T23:38:08.114Z,6.70
2023-08-17T23:40:34.869Z,6.60
2023-08-17T23:43:01.984Z,8.60
2023-08-17T23:45:30.831Z,6.20
2023-08-17T23:47:58.748Z,6.30
2023-08-17T23:50:25.332Z,6.60
2023-08-17T23:52:52.445Z,7.50
2023-08-17T23:55:19.297Z,8.70
2023-08-17T23:57:46.006Z,8.10
